地図

経路データ

SID SEASON NUMBER BASIN SUBBASIN NAME ISO_TIME NATURE LAT LON WMO_WIND WMO_PRES WMO_AGENCY TRACK_TYPE DIST2LAND LANDFALL IFLAG USA_AGENCY USA_ATCF_ID USA_LAT USA_LON USA_RECORD USA_STATUS USA_WIND USA_PRES USA_SSHS USA_R34_NE USA_R34_SE USA_R34_SW USA_R34_NW USA_R50_NE USA_R50_SE USA_R50_SW USA_R50_NW USA_R64_NE USA_R64_SE USA_R64_SW USA_R64_NW USA_POCI USA_ROCI USA_RMW USA_EYE TOKYO_LAT TOKYO_LON TOKYO_GRADE TOKYO_WIND TOKYO_PRES TOKYO_R50_DIR TOKYO_R50_LONG TOKYO_R50_SHORT TOKYO_R30_DIR TOKYO_R30_LONG TOKYO_R30_SHORT TOKYO_LAND CMA_LAT CMA_LON CMA_CAT CMA_WIND CMA_PRES HKO_LAT HKO_LON HKO_CAT HKO_WIND HKO_PRES NEWDELHI_LAT NEWDELHI_LON NEWDELHI_GRADE NEWDELHI_WIND NEWDELHI_PRES NEWDELHI_CI NEWDELHI_DP NEWDELHI_POCI REUNION_LAT REUNION_LON REUNION_TYPE REUNION_WIND REUNION_PRES REUNION_TNUM REUNION_CI REUNION_RMW REUNION_R34_NE REUNION_R34_SE REUNION_R34_SW REUNION_R34_NW REUNION_R50_NE REUNION_R50_SE REUNION_R50_SW REUNION_R50_NW REUNION_R64_NE REUNION_R64_SE REUNION_R64_SW REUNION_R64_NW BOM_LAT BOM_LON BOM_TYPE BOM_WIND BOM_PRES BOM_TNUM BOM_CI BOM_RMW BOM_R34_NE BOM_R34_SE BOM_R34_SW BOM_R34_NW BOM_R50_NE BOM_R50_SE BOM_R50_SW BOM_R50_NW BOM_R64_NE BOM_R64_SE BOM_R64_SW BOM_R64_NW BOM_ROCI BOM_POCI BOM_EYE BOM_POS_METHOD BOM_PRES_METHOD NADI_LAT NADI_LON NADI_CAT NADI_WIND NADI_PRES WELLINGTON_LAT WELLINGTON_LON WELLINGTON_WIND WELLINGTON_PRES DS824_LAT DS824_LON DS824_STAGE DS824_WIND DS824_PRES TD9636_LAT TD9636_LON TD9636_STAGE TD9636_WIND TD9636_PRES TD9635_LAT TD9635_LON TD9635_WIND TD9635_PRES TD9635_ROCI NEUMANN_LAT NEUMANN_LON NEUMANN_CLASS NEUMANN_WIND NEUMANN_PRES MLC_LAT MLC_LON MLC_CLASS MLC_WIND MLC_PRES USA_GUST BOM_GUST BOM_GUST_PER REUNION_GUST REUNION_GUST_PER USA_SEAHGT USA_SEARAD_NE USA_SEARAD_SE USA_SEARAD_SW USA_SEARAD_NW STORM_SPEED STORM_DIR
1985346S12145 1986 115 SP EA NOT_NAMED 1985-12-11 18:00:00 TS -12.2000 144.800 main 158 158 O___________O_ jtwc_sh SH031986 -12.2000 144.800 20 -1 -12.2000 144.800 TC 20 17 126
1985346S12145 1986 115 SP EA NOT_NAMED 1985-12-11 21:00:00 TS -12.7054 145.502 main 209 203 P___________P_ SH031986 -12.7054 145.502 22 -1 -12.7054 145.502 TC 22 17 126
1985346S12145 1986 115 SP EA NOT_NAMED 1985-12-12 00:00:00 TS -13.2000 146.229 main 218 214 O_________O_O_ jtwc_sh SH031986 -13.2000 146.200 25 -1 -13.2000 146.400 1 -13.2000 146.200 TC 25 17 125
1985346S12145 1986 115 SP EA NOT_NAMED 1985-12-12 03:00:00 TS -13.6588 146.905 main 225 225 P_________P_P_ SH031986 -13.6722 146.893 25 -1 -13.6050 146.955 1 -13.6722 146.893 TC 25 16 124
1985346S12145 1986 115 SP EA NOT_NAMED 1985-12-12 06:00:00 TS -14.0721 147.581 main 267 267 O_________P_O_ jtwc_sh SH031986 -14.1000 147.600 25 -1 -13.9975 147.529 1 -14.1000 147.600 TC 25 16 121
1985346S12145 1986 115 SP EA NOT_NAMED 1985-12-12 09:00:00 TS -14.4471 148.280 main 327 324 P_________P_P_ SH031986 -14.4874 148.350 25 -1 -14.3664 148.138 1 -14.4874 148.350 TC 25 15 117
1985346S12145 1986 115 SP EA NOT_NAMED 1985-12-12 12:00:00 TS -14.7667 149.000 main 390 390 O_________O_O_ jtwc_sh SH031986 -14.8000 149.100 25 -1 -14.7000 148.800 1 -14.8000 149.100 TC 25 15 112
1985346S12145 1986 115 SP EA NOT_NAMED 1985-12-12 15:00:00 TS -15.0208 149.732 main 462 462 P_________P_P_ SH031986 -15.0375 149.838 25 -1 -14.9875 149.520 1 -15.0375 149.838 TC 25 14 108
1985346S12145 1986 115 SP EA NOT_NAMED 1985-12-12 18:00:00 TS -15.2070 150.420 main 503 503 O_________P_O_ jtwc_sh SH031986 -15.2000 150.500 25 -1 -15.2210 150.260 1 -15.2000 150.500 TC 25 13 105
1985346S12145 1986 115 SP EA NOT_NAMED 1985-12-12 21:00:00 TS -15.3561 151.020 main 530 530 P_________P_P_ SH031986 -15.3372 151.045 25 -1 -15.3939 150.970 1 -15.3372 151.045 TC 25 11 102
1985346S12145 1986 115 SP EA NOT_NAMED 1985-12-13 00:00:00 TS -15.4333 151.533 main 539 539 O_________O_O_ jtwc_sh SH031986 -15.4000 151.500 25 -1 -15.5000 151.600 1 -15.4000 151.500 TC 25 9 95
1985346S12145 1986 115 SP EA NOT_NAMED 1985-12-13 03:00:00 TS -15.4380 151.958 main 554 554 P_________P_P_ SH031986 -15.3798 151.900 25 -1 -15.5545 152.075 1 -15.3798 151.900 TC 25 8 86
1985346S12145 1986 115 SP EA NOT_NAMED 1985-12-13 06:00:00 TS -15.3819 152.356 main 568 565 O_________P_O_ jtwc_sh SH031986 -15.3000 152.300 25 -1 -15.5457 152.468 1 -15.3000 152.300 TC 25 8 80
1985346S12145 1986 115 SP EA NOT_NAMED 1985-12-13 09:00:00 TS -15.3014 152.804 main 573 573 P_________P_P_ SH031986 -15.2075 152.793 25 -1 -15.4891 152.827 1 -15.2075 152.793 TC 25 9 78
1985346S12145 1986 115 SP EA NOT_NAMED 1985-12-13 12:00:00 TS -15.2000 153.267 main 587 587 O_________O_O_ jtwc_sh SH031986 -15.1000 153.300 25 -1 -15.4000 153.200 1 -15.1000 153.300 TC 25 9 77
1985346S12145 1986 115 SP EA NOT_NAMED 1985-12-13 15:00:00 TS -15.0972 153.745 main 599 599 P_________P_P_ SH031986 -15.0000 153.780 25 -1 -15.2918 153.674 1 -15.0000 153.780 TC 25 9 76
1985346S12145 1986 115 SP EA NOT_NAMED 1985-12-13 18:00:00 TS -14.9859 154.189 main 621 619 O_________P_O_ jtwc_sh SH031986 -14.9000 154.200 25 -1 -15.1578 154.166 1 -14.9000 154.200 TC 25 8 74
1985346S12145 1986 115 SP EA NOT_NAMED 1985-12-13 21:00:00 TS -14.8682 154.560 main 640 632 P_________P_P_ SH031986 -14.7923 154.515 25 -1 -15.0199 154.649 1 -14.7923 154.515 TC 25 7 72
1985346S12145 1986 115 SP EA NOT_NAMED 1985-12-14 00:00:00 TS -14.7667 154.900 main 654 654 O_________O_O_ jtwc_sh SH031986 -14.7000 154.800 25 -1 -14.9000 155.100 1 -14.7000 154.800 TC 25 7 77
1985346S12145 1986 115 SP EA NOT_NAMED 1985-12-14 03:00:00 TS -14.7084 155.262 main 678 678 P_________P_P_ SH031986 -14.6425 155.150 25 -1 -14.8402 155.485 1 -14.6425 155.150 TC 25 7 82
1985346S12145 1986 115 SP EA NOT_NAMED 1985-12-14 06:00:00 TS -14.6665 155.612 main 702 684 O_________P_O_ jtwc_sh SH031986 -14.6000 155.500 25 -1 -14.7994 155.837 1 -14.6000 155.500 TC 25 6 82
1985346S12145 1986 115 SP EA NOT_NAMED 1985-12-14 09:00:00 TS -14.6146 155.923 main 684 664 P_________P_P_ SH031986 -14.5424 155.800 25 -1 -14.7590 156.170 1 -14.5424 155.800 TC 25 6 81
1985346S12145 1986 115 SP EA NOT_NAMED 1985-12-14 12:00:00 TS -14.5667 156.233 main 664 630 O_________O_O_ jtwc_sh SH031986 -14.5000 156.100 25 -1 -14.7000 156.500 1 -14.5000 156.100 TC 25 6 83
1985346S12145 1986 115 SP EA NOT_NAMED 1985-12-14 15:00:00 TS -14.5330 156.570 main 630 613 P_________P_P_ SH031986 -14.5075 156.442 25 -1 -14.5839 156.826 1 -14.5075 156.442 TC 25 7 83
1985346S12145 1986 115 SP EA NOT_NAMED 1985-12-14 18:00:00 TS -14.4831 156.918 main 613 587 O_________P_O_ jtwc_sh SH031986 -14.5000 156.800 25 -1 -14.4493 157.155 1 -14.5000 156.800 TC 25 7 77
1985346S12145 1986 115 SP EA NOT_NAMED 1985-12-14 21:00:00 TS -14.3816 157.259 main 582 557 P_________P_P_ SH031986 -14.4149 157.135 25 -1 -14.3151 157.507 1 -14.4149 157.135 TC 25 7 73
1985346S12145 1986 115 SP EA NOT_NAMED 1985-12-15 00:00:00 TS -14.2667 157.633 main 557 530 O_________O_O_ jtwc_sh SH031986 -14.3000 157.500 25 -1 -14.2000 157.900 2 -14.3000 157.500 TC 25 8 75
1985346S12145 1986 115 SP EA NOT_NAMED 1985-12-15 03:00:00 TS -14.1671 158.071 main 526 501 P_________P_P_ SH031986 -14.1924 157.928 27 -1 -14.1163 158.357 2 -14.1924 157.928 TC 27 9 78
1985346S12145 1986 115 SP EA NOT_NAMED 1985-12-15 06:00:00 TS -14.0850 158.552 main 498 467 O_________P_O_ jtwc_sh SH031986 -14.1000 158.400 30 -1 -14.0551 158.855 2 -14.1000 158.400 TC 30 10 82
1985346S12145 1986 115 SP EA NOT_NAMED 1985-12-15 09:00:00 TS -14.0337 159.054 main 461 436 P_________P_P_ SH031986 -14.0424 158.892 30 -1 -14.0163 159.376 2 -14.0424 158.892 TC 30 10 85
1985346S12145 1986 115 SP EA NOT_NAMED 1985-12-15 12:00:00 TS -14.0000 159.567 main 430 408 O_________O_O_ jtwc_sh SH031986 -14.0000 159.400 30 -1 -14.0000 159.900 1 -14.0000 159.400 TC 30 10 86
1985346S12145 1986 115 SP MM NOT_NAMED 1985-12-15 15:00:00 TS -13.9684 160.066 main 403 374 P_________P_P_ SH031986 -13.9498 159.892 30 -1 -14.0055 160.413 1 -13.9498 159.892 TC 30 9 86
1985346S12145 1986 115 SP MM NOT_NAMED 1985-12-15 18:00:00 TS -13.9349 160.540 main 374 357 O_________P_O_ jtwc_sh SH031986 -13.9000 160.400 30 -1 -14.0280 160.915 1 -13.9000 160.400 TC 30 9 86
1985346S12145 1986 115 SP MM NOT_NAMED 1985-12-15 21:00:00 TS -13.8982 161.036 main 357 337 P_________P_P_ SH031986 -13.8574 160.942 27 -1 -14.0615 161.409 1 -13.8574 160.942 TC 27 10 85
1985346S12145 1986 115 SP MM NOT_NAMED 1985-12-16 00:00:00 TS -13.8429 161.557 main 336 324 O_________O_O_ jtwc_sh SH031986 -13.8000 161.500 25 -1 -14.1000 161.900 1 -13.8000 161.500 TC 25 10 79
1985346S12145 1986 115 SP MM NOT_NAMED 1985-12-16 03:00:00 TS -13.7102 162.053 main 324 313 P___________P_ SH031986 -13.7102 162.053 22 -1 1 -13.7102 162.053 TC 22 10 77
1985346S12145 1986 115 SP MM NOT_NAMED 1985-12-16 06:00:00 TS -13.6000 162.600 main 315 O___________O_ jtwc_sh SH031986 -13.6000 162.600 20 -1 1 -13.6000 162.600 TC 20 11 78

デジタル台風データ・検索

IBTrACS Databaseについて

本データベースは、米国NOAAが公開する1842年以降の世界の熱帯低気圧のベストトラックデータアーカイブInternational Best Track Archive for Climate Stewardship (IBTrACS)を、ウェブで閲覧しやすい形式に変換したものです。

最終更新日:2021-10-27